sensor_id;sensor_type;location;lat;lon;timestamp;P1;durP1;ratioP1;P2;durP2;ratioP2
21546;SDS011;41275;51.912;4.388;2023-08-30T00:00:04;5.88;;;2.50;;
21546;SDS011;41275;51.912;4.388;2023-08-30T00:05:26;7.20;;;2.63;;
21546;SDS011;41275;51.912;4.388;2023-08-30T00:10:48;6.37;;;2.33;;
21546;SDS011;41275;51.912;4.388;2023-08-30T00:16:10;4.90;;;2.03;;
21546;SDS011;41275;51.912;4.388;2023-08-30T00:21:31;4.73;;;2.20;;
21546;SDS011;41275;51.912;4.388;2023-08-30T00:26:52;6.07;;;2.33;;
21546;SDS011;41275;51.912;4.388;2023-08-30T00:32:13;5.10;;;2.20;;
21546;SDS011;41275;51.912;4.388;2023-08-30T00:37:34;5.25;;;2.10;;
21546;SDS011;41275;51.912;4.388;2023-08-30T00:42:56;6.10;;;2.53;;
21546;SDS011;41275;51.912;4.388;2023-08-30T00:48:18;8.50;;;2.93;;
21546;SDS011;41275;51.912;4.388;2023-08-30T00:53:41;6.57;;;2.78;;
21546;SDS011;41275;51.912;4.388;2023-08-30T00:59:02;7.32;;;2.53;;
21546;SDS011;41275;51.912;4.388;2023-08-30T01:04:24;8.30;;;2.90;;
21546;SDS011;41275;51.912;4.388;2023-08-30T01:09:45;6.63;;;2.60;;
21546;SDS011;41275;51.912;4.388;2023-08-30T01:15:13;5.40;;;2.60;;
21546;SDS011;41275;51.912;4.388;2023-08-30T01:20:39;7.38;;;2.50;;
21546;SDS011;41275;51.912;4.388;2023-08-30T01:26:04;4.43;;;2.50;;
21546;SDS011;41275;51.912;4.388;2023-08-30T01:31:41;9.30;;;2.67;;
21546;SDS011;41275;51.912;4.388;2023-08-30T01:37:04;7.25;;;2.70;;
21546;SDS011;41275;51.912;4.388;2023-08-30T01:42:28;7.13;;;2.33;;
21546;SDS011;41275;51.912;4.388;2023-08-30T01:47:49;7.45;;;2.92;;
21546;SDS011;41275;51.912;4.388;2023-08-30T01:53:13;9.65;;;3.60;;
21546;SDS011;41275;51.912;4.388;2023-08-30T01:58:35;7.18;;;3.10;;
21546;SDS011;41275;51.912;4.388;2023-08-30T02:03:57;7.03;;;2.97;;
21546;SDS011;41275;51.912;4.388;2023-08-30T02:09:37;5.80;;;2.87;;
21546;SDS011;41275;51.912;4.388;2023-08-30T02:15:01;6.60;;;2.90;;
21546;SDS011;41275;51.912;4.388;2023-08-30T02:20:23;7.35;;;2.92;;
21546;SDS011;41275;51.912;4.388;2023-08-30T02:25:44;4.93;;;2.80;;
21546;SDS011;41275;51.912;4.388;2023-08-30T02:31:07;7.80;;;3.03;;
21546;SDS011;41275;51.912;4.388;2023-08-30T02:36:28;7.78;;;3.20;;
21546;SDS011;41275;51.912;4.388;2023-08-30T02:41:49;6.47;;;3.53;;
21546;SDS011;41275;51.912;4.388;2023-08-30T02:47:10;8.02;;;3.50;;
21546;SDS011;41275;51.912;4.388;2023-08-30T02:52:31;8.53;;;3.33;;
21546;SDS011;41275;51.912;4.388;2023-08-30T02:57:53;7.10;;;3.22;;
21546;SDS011;41275;51.912;4.388;2023-08-30T03:03:14;6.63;;;3.50;;
21546;SDS011;41275;51.912;4.388;2023-08-30T03:08:35;8.37;;;3.80;;
21546;SDS011;41275;51.912;4.388;2023-08-30T03:13:57;9.03;;;4.07;;
21546;SDS011;41275;51.912;4.388;2023-08-30T03:19:18;7.70;;;3.67;;
21546;SDS011;41275;51.912;4.388;2023-08-30T03:24:39;8.03;;;3.67;;
21546;SDS011;41275;51.912;4.388;2023-08-30T03:30:01;6.72;;;3.35;;
21546;SDS011;41275;51.912;4.388;2023-08-30T03:35:23;7.97;;;3.58;;
21546;SDS011;41275;51.912;4.388;2023-08-30T03:40:44;6.72;;;3.30;;
21546;SDS011;41275;51.912;4.388;2023-08-30T03:46:05;8.87;;;3.50;;
21546;SDS011;41275;51.912;4.388;2023-08-30T03:51:27;8.00;;;4.22;;
21546;SDS011;41275;51.912;4.388;2023-08-30T03:56:48;8.43;;;3.78;;
21546;SDS011;41275;51.912;4.388;2023-08-30T04:02:09;9.05;;;3.83;;
21546;SDS011;41275;51.912;4.388;2023-08-30T04:07:30;9.50;;;4.05;;
21546;SDS011;41275;51.912;4.388;2023-08-30T04:12:52;9.83;;;4.37;;
21546;SDS011;41275;51.912;4.388;2023-08-30T04:18:13;8.43;;;4.00;;
21546;SDS011;41275;51.912;4.388;2023-08-30T04:23:34;7.22;;;3.55;;
21546;SDS011;41275;51.912;4.388;2023-08-30T04:28:56;9.95;;;4.22;;
21546;SDS011;41275;51.912;4.388;2023-08-30T04:34:17;8.57;;;4.10;;
21546;SDS011;41275;51.912;4.388;2023-08-30T04:39:40;10.85;;;4.40;;
21546;SDS011;41275;51.912;4.388;2023-08-30T04:45:01;9.88;;;4.40;;
21546;SDS011;41275;51.912;4.388;2023-08-30T04:50:23;10.10;;;4.13;;
21546;SDS011;41275;51.912;4.388;2023-08-30T04:55:45;8.75;;;4.25;;
21546;SDS011;41275;51.912;4.388;2023-08-30T05:01:06;11.18;;;4.38;;
21546;SDS011;41275;51.912;4.388;2023-08-30T05:06:27;9.65;;;4.43;;
21546;SDS011;41275;51.912;4.388;2023-08-30T05:11:49;10.23;;;4.53;;
21546;SDS011;41275;51.912;4.388;2023-08-30T05:17:10;8.90;;;3.73;;
21546;SDS011;41275;51.912;4.388;2023-08-30T05:22:31;8.18;;;4.20;;
21546;SDS011;41275;51.912;4.388;2023-08-30T05:27:52;8.90;;;3.58;;
21546;SDS011;41275;51.912;4.388;2023-08-30T05:33:13;8.33;;;4.27;;
21546;SDS011;41275;51.912;4.388;2023-08-30T05:38:35;8.60;;;4.28;;
21546;SDS011;41275;51.912;4.388;2023-08-30T05:43:56;9.70;;;4.23;;
21546;SDS011;41275;51.912;4.388;2023-08-30T05:49:17;10.05;;;4.43;;
21546;SDS011;41275;51.912;4.388;2023-08-30T05:54:38;9.00;;;4.18;;
21546;SDS011;41275;51.912;4.388;2023-08-30T06:00:00;7.33;;;4.00;;
21546;SDS011;41275;51.912;4.388;2023-08-30T06:05:22;9.18;;;4.18;;
21546;SDS011;41275;51.912;4.388;2023-08-30T06:10:43;8.45;;;3.63;;
21546;SDS011;41275;51.912;4.388;2023-08-30T06:16:04;6.87;;;2.67;;
21546;SDS011;41275;51.912;4.388;2023-08-30T06:21:25;6.35;;;2.50;;
21546;SDS011;41275;51.912;4.388;2023-08-30T06:26:47;5.25;;;2.65;;
21546;SDS011;41275;51.912;4.388;2023-08-30T06:32:08;4.17;;;2.23;;
21546;SDS011;41275;51.912;4.388;2023-08-30T06:37:29;4.47;;;2.22;;
21546;SDS011;41275;51.912;4.388;2023-08-30T06:42:50;4.85;;;2.33;;
21546;SDS011;41275;51.912;4.388;2023-08-30T06:48:12;5.60;;;2.73;;
21546;SDS011;41275;51.912;4.388;2023-08-30T06:53:33;5.53;;;2.80;;
21546;SDS011;41275;51.912;4.388;2023-08-30T06:58:54;7.80;;;3.40;;
21546;SDS011;41275;51.912;4.388;2023-08-30T07:04:16;7.18;;;3.00;;
21546;SDS011;41275;51.912;4.388;2023-08-30T07:09:44;6.95;;;3.30;;
21546;SDS011;41275;51.912;4.388;2023-08-30T07:15:08;6.30;;;2.97;;
21546;SDS011;41275;51.912;4.388;2023-08-30T07:20:39;5.07;;;2.72;;
21546;SDS011;41275;51.912;4.388;2023-08-30T07:26:00;4.80;;;2.67;;
21546;SDS011;41275;51.912;4.388;2023-08-30T07:31:22;4.97;;;2.87;;
21546;SDS011;41275;51.912;4.388;2023-08-30T07:36:43;5.88;;;2.75;;
21546;SDS011;41275;51.912;4.388;2023-08-30T07:42:04;4.82;;;2.75;;
21546;SDS011;41275;51.912;4.388;2023-08-30T07:47:26;4.90;;;2.60;;
21546;SDS011;41275;51.912;4.388;2023-08-30T07:52:47;4.80;;;2.67;;
21546;SDS011;41275;51.912;4.388;2023-08-30T07:58:11;5.03;;;2.88;;
21546;SDS011;41275;51.912;4.388;2023-08-30T08:03:32;5.57;;;2.77;;
21546;SDS011;41275;51.912;4.388;2023-08-30T08:08:54;5.67;;;2.70;;
21546;SDS011;41275;51.912;4.388;2023-08-30T08:14:15;3.97;;;2.33;;
21546;SDS011;41275;51.912;4.388;2023-08-30T08:19:36;4.07;;;2.20;;
21546;SDS011;41275;51.912;4.388;2023-08-30T08:25:00;4.32;;;2.28;;
21546;SDS011;41275;51.912;4.388;2023-08-30T08:30:21;3.93;;;2.37;;
21546;SDS011;41275;51.912;4.388;2023-08-30T08:35:43;3.70;;;1.50;;
21546;SDS011;41275;51.912;4.388;2023-08-30T08:41:05;2.60;;;1.23;;
21546;SDS011;41275;51.912;4.388;2023-08-30T08:46:27;2.83;;;1.30;;
21546;SDS011;41275;51.912;4.388;2023-08-30T08:51:51;6.05;;;1.50;;
21546;SDS011;41275;51.912;4.388;2023-08-30T08:57:12;3.38;;;1.30;;
21546;SDS011;41275;51.912;4.388;2023-08-30T09:02:34;5.15;;;1.00;;
21546;SDS011;41275;51.912;4.388;2023-08-30T09:07:55;4.23;;;1.20;;
21546;SDS011;41275;51.912;4.388;2023-08-30T09:13:17;3.43;;;1.20;;
21546;SDS011;41275;51.912;4.388;2023-08-30T09:18:39;4.23;;;1.30;;
21546;SDS011;41275;51.912;4.388;2023-08-30T09:24:01;9.30;;;1.48;;
21546;SDS011;41275;51.912;4.388;2023-08-30T09:29:23;4.28;;;1.17;;
21546;SDS011;41275;51.912;4.388;2023-08-30T09:34:45;5.80;;;1.40;;
21546;SDS011;41275;51.912;4.388;2023-08-30T09:40:08;3.30;;;1.10;;
21546;SDS011;41275;51.912;4.388;2023-08-30T09:45:29;6.10;;;1.50;;
21546;SDS011;41275;51.912;4.388;2023-08-30T09:50:53;6.15;;;1.70;;
21546;SDS011;41275;51.912;4.388;2023-08-30T09:56:15;4.10;;;1.40;;
21546;SDS011;41275;51.912;4.388;2023-08-30T10:01:39;5.22;;;1.50;;
21546;SDS011;41275;51.912;4.388;2023-08-30T10:07:00;2.85;;;1.10;;
21546;SDS011;41275;51.912;4.388;2023-08-30T10:12:25;10.15;;;1.90;;
21546;SDS011;41275;51.912;4.388;2023-08-30T10:17:46;4.28;;;1.20;;
21546;SDS011;41275;51.912;4.388;2023-08-30T10:23:13;4.80;;;1.58;;
21546;SDS011;41275;51.912;4.388;2023-08-30T10:28:35;5.67;;;1.53;;
21546;SDS011;41275;51.912;4.388;2023-08-30T10:33:59;6.10;;;1.50;;
21546;SDS011;41275;51.912;4.388;2023-08-30T10:39:20;5.85;;;1.23;;
21546;SDS011;41275;51.912;4.388;2023-08-30T10:44:57;6.07;;;1.57;;
21546;SDS011;41275;51.912;4.388;2023-08-30T10:50:26;5.57;;;1.52;;
21546;SDS011;41275;51.912;4.388;2023-08-30T10:56:02;2.97;;;0.90;;
21546;SDS011;41275;51.912;4.388;2023-08-30T11:01:27;3.97;;;1.00;;
21546;SDS011;41275;51.912;4.388;2023-08-30T11:06:51;4.43;;;1.17;;
21546;SDS011;41275;51.912;4.388;2023-08-30T11:12:13;4.93;;;1.10;;
21546;SDS011;41275;51.912;4.388;2023-08-30T11:17:34;3.92;;;1.30;;
21546;SDS011;41275;51.912;4.388;2023-08-30T11:22:55;3.83;;;1.00;;
21546;SDS011;41275;51.912;4.388;2023-08-30T11:28:23;7.03;;;1.50;;
21546;SDS011;41275;51.912;4.388;2023-08-30T11:33:58;4.75;;;0.93;;
21546;SDS011;41275;51.912;4.388;2023-08-30T11:39:20;4.38;;;0.90;;
21546;SDS011;41275;51.912;4.388;2023-08-30T11:44:44;3.67;;;1.03;;
21546;SDS011;41275;51.912;4.388;2023-08-30T11:50:06;3.72;;;1.08;;
21546;SDS011;41275;51.912;4.388;2023-08-30T11:55:30;4.03;;;0.98;;
21546;SDS011;41275;51.912;4.388;2023-08-30T12:00:52;4.10;;;1.10;;
21546;SDS011;41275;51.912;4.388;2023-08-30T12:06:15;2.47;;;0.70;;
21546;SDS011;41275;51.912;4.388;2023-08-30T12:11:36;1.77;;;0.60;;
21546;SDS011;41275;51.912;4.388;2023-08-30T12:16:59;4.38;;;0.90;;
21546;SDS011;41275;51.912;4.388;2023-08-30T12:22:20;2.40;;;0.85;;
21546;SDS011;41275;51.912;4.388;2023-08-30T12:27:42;7.13;;;1.13;;
21546;SDS011;41275;51.912;4.388;2023-08-30T12:33:03;4.18;;;1.10;;
21546;SDS011;41275;51.912;4.388;2023-08-30T12:38:24;5.55;;;1.23;;
21546;SDS011;41275;51.912;4.388;2023-08-30T12:43:46;3.97;;;1.00;;
21546;SDS011;41275;51.912;4.388;2023-08-30T12:49:07;5.38;;;1.23;;
21546;SDS011;41275;51.912;4.388;2023-08-30T12:54:28;5.25;;;0.98;;
21546;SDS011;41275;51.912;4.388;2023-08-30T12:59:49;6.43;;;1.10;;
21546;SDS011;41275;51.912;4.388;2023-08-30T13:05:11;3.58;;;0.75;;
21546;SDS011;41275;51.912;4.388;2023-08-30T13:10:32;3.30;;;0.90;;
21546;SDS011;41275;51.912;4.388;2023-08-30T13:15:55;3.90;;;1.08;;
21546;SDS011;41275;51.912;4.388;2023-08-30T13:21:16;3.93;;;0.83;;
21546;SDS011;41275;51.912;4.388;2023-08-30T13:26:38;4.40;;;0.80;;
21546;SDS011;41275;51.912;4.388;2023-08-30T13:31:59;4.55;;;0.98;;
21546;SDS011;41275;51.912;4.388;2023-08-30T13:37:21;4.67;;;1.00;;
21546;SDS011;41275;51.912;4.388;2023-08-30T13:42:44;10.25;;;1.30;;
21546;SDS011;41275;51.912;4.388;2023-08-30T13:48:05;4.77;;;0.60;;
21546;SDS011;41275;51.912;4.388;2023-08-30T13:53:26;4.32;;;0.90;;
21546;SDS011;41275;51.912;4.388;2023-08-30T13:58:49;3.50;;;0.75;;
21546;SDS011;41275;51.912;4.388;2023-08-30T14:04:10;1.95;;;0.47;;
21546;SDS011;41275;51.912;4.388;2023-08-30T14:09:31;3.17;;;0.70;;
21546;SDS011;41275;51.912;4.388;2023-08-30T14:14:53;3.63;;;0.65;;
21546;SDS011;41275;51.912;4.388;2023-08-30T14:20:14;2.50;;;0.60;;
21546;SDS011;41275;51.912;4.388;2023-08-30T14:25:36;2.63;;;0.60;;
21546;SDS011;41275;51.912;4.388;2023-08-30T14:30:57;4.32;;;0.80;;
21546;SDS011;41275;51.912;4.388;2023-08-30T14:36:18;2.90;;;0.52;;
21546;SDS011;41275;51.912;4.388;2023-08-30T14:41:40;2.40;;;0.80;;
21546;SDS011;41275;51.912;4.388;2023-08-30T14:47:01;2.50;;;0.60;;
21546;SDS011;41275;51.912;4.388;2023-08-30T14:52:23;2.80;;;0.70;;
21546;SDS011;41275;51.912;4.388;2023-08-30T14:57:44;2.90;;;0.68;;
21546;SDS011;41275;51.912;4.388;2023-08-30T15:03:05;5.07;;;0.40;;
21546;SDS011;41275;51.912;4.388;2023-08-30T15:08:26;3.45;;;0.57;;
21546;SDS011;41275;51.912;4.388;2023-08-30T15:13:47;2.05;;;0.50;;
21546;SDS011;41275;51.912;4.388;2023-08-30T15:19:09;2.53;;;0.77;;
21546;SDS011;41275;51.912;4.388;2023-08-30T15:24:30;2.97;;;0.60;;
21546;SDS011;41275;51.912;4.388;2023-08-30T15:29:51;2.67;;;0.68;;
21546;SDS011;41275;51.912;4.388;2023-08-30T15:35:15;3.08;;;0.80;;
21546;SDS011;41275;51.912;4.388;2023-08-30T15:40:36;3.20;;;1.00;;
21546;SDS011;41275;51.912;4.388;2023-08-30T15:45:58;4.03;;;0.60;;
21546;SDS011;41275;51.912;4.388;2023-08-30T15:51:19;2.35;;;0.63;;
21546;SDS011;41275;51.912;4.388;2023-08-30T15:56:41;3.00;;;0.60;;
21546;SDS011;41275;51.912;4.388;2023-08-30T16:02:02;3.87;;;0.63;;
21546;SDS011;41275;51.912;4.388;2023-08-30T16:07:25;2.42;;;0.50;;
21546;SDS011;41275;51.912;4.388;2023-08-30T16:12:46;2.65;;;0.70;;
21546;SDS011;41275;51.912;4.388;2023-08-30T16:18:07;3.72;;;0.60;;
21546;SDS011;41275;51.912;4.388;2023-08-30T16:23:28;4.13;;;1.00;;
21546;SDS011;41275;51.912;4.388;2023-08-30T16:28:52;3.17;;;0.88;;
21546;SDS011;41275;51.912;4.388;2023-08-30T16:34:13;5.30;;;0.82;;
21546;SDS011;41275;51.912;4.388;2023-08-30T16:39:35;3.63;;;0.53;;
21546;SDS011;41275;51.912;4.388;2023-08-30T16:44:56;1.83;;;0.60;;
21546;SDS011;41275;51.912;4.388;2023-08-30T16:50:18;2.42;;;0.95;;
21546;SDS011;41275;51.912;4.388;2023-08-30T16:55:39;1.55;;;0.60;;
21546;SDS011;41275;51.912;4.388;2023-08-30T17:01:01;4.35;;;0.82;;
21546;SDS011;41275;51.912;4.388;2023-08-30T17:06:22;3.50;;;0.95;;
21546;SDS011;41275;51.912;4.388;2023-08-30T17:11:43;3.70;;;1.17;;
21546;SDS011;41275;51.912;4.388;2023-08-30T17:17:04;4.60;;;0.83;;
21546;SDS011;41275;51.912;4.388;2023-08-30T17:22:26;4.57;;;1.02;;
21546;SDS011;41275;51.912;4.388;2023-08-30T17:27:47;6.37;;;1.10;;
21546;SDS011;41275;51.912;4.388;2023-08-30T17:33:08;3.55;;;1.25;;
21546;SDS011;41275;51.912;4.388;2023-08-30T17:38:29;3.70;;;0.80;;
21546;SDS011;41275;51.912;4.388;2023-08-30T17:43:52;2.93;;;0.93;;
21546;SDS011;41275;51.912;4.388;2023-08-30T17:49:13;4.13;;;1.00;;
21546;SDS011;41275;51.912;4.388;2023-08-30T17:54:34;4.47;;;0.80;;
21546;SDS011;41275;51.912;4.388;2023-08-30T17:59:56;2.97;;;0.80;;
21546;SDS011;41275;51.912;4.388;2023-08-30T18:05:17;2.05;;;0.65;;
21546;SDS011;41275;51.912;4.388;2023-08-30T18:10:39;2.67;;;0.77;;
21546;SDS011;41275;51.912;4.388;2023-08-30T18:16:00;3.97;;;0.70;;
21546;SDS011;41275;51.912;4.388;2023-08-30T18:21:21;2.88;;;0.50;;
21546;SDS011;41275;51.912;4.388;2023-08-30T18:26:43;2.20;;;1.02;;
21546;SDS011;41275;51.912;4.388;2023-08-30T18:32:05;5.00;;;0.40;;
21546;SDS011;41275;51.912;4.388;2023-08-30T18:37:26;4.07;;;0.40;;
21546;SDS011;41275;51.912;4.388;2023-08-30T18:42:48;2.20;;;0.47;;
21546;SDS011;41275;51.912;4.388;2023-08-30T18:48:09;2.78;;;0.30;;
21546;SDS011;41275;51.912;4.388;2023-08-30T18:53:30;2.97;;;0.50;;
21546;SDS011;41275;51.912;4.388;2023-08-30T18:58:51;2.27;;;0.50;;
21546;SDS011;41275;51.912;4.388;2023-08-30T19:04:15;5.50;;;0.50;;
21546;SDS011;41275;51.912;4.388;2023-08-30T19:09:37;4.85;;;0.65;;
21546;SDS011;41275;51.912;4.388;2023-08-30T19:15:01;4.43;;;1.23;;
21546;SDS011;41275;51.912;4.388;2023-08-30T19:20:23;2.28;;;0.55;;
21546;SDS011;41275;51.912;4.388;2023-08-30T19:25:47;3.20;;;0.90;;
21546;SDS011;41275;51.912;4.388;2023-08-30T19:31:09;3.45;;;1.00;;
21546;SDS011;41275;51.912;4.388;2023-08-30T19:36:31;3.85;;;0.75;;
21546;SDS011;41275;51.912;4.388;2023-08-30T19:41:52;2.47;;;0.80;;
21546;SDS011;41275;51.912;4.388;2023-08-30T19:47:13;2.20;;;0.73;;
21546;SDS011;41275;51.912;4.388;2023-08-30T19:52:34;3.13;;;1.02;;
21546;SDS011;41275;51.912;4.388;2023-08-30T19:57:55;5.13;;;0.80;;
21546;SDS011;41275;51.912;4.388;2023-08-30T20:03:17;1.73;;;0.83;;
21546;SDS011;41275;51.912;4.388;2023-08-30T20:08:39;2.63;;;0.65;;
21546;SDS011;41275;51.912;4.388;2023-08-30T20:14:00;2.93;;;0.70;;
21546;SDS011;41275;51.912;4.388;2023-08-30T20:19:21;1.83;;;0.60;;
21546;SDS011;41275;51.912;4.388;2023-08-30T20:24:43;1.30;;;0.60;;
21546;SDS011;41275;51.912;4.388;2023-08-30T20:30:04;0.65;;;0.40;;
21546;SDS011;41275;51.912;4.388;2023-08-30T20:35:27;1.77;;;0.38;;
21546;SDS011;41275;51.912;4.388;2023-08-30T20:40:51;0.73;;;0.50;;
21546;SDS011;41275;51.912;4.388;2023-08-30T20:46:15;2.10;;;0.50;;
21546;SDS011;41275;51.912;4.388;2023-08-30T20:51:36;2.50;;;0.60;;
21546;SDS011;41275;51.912;4.388;2023-08-30T20:57:00;1.57;;;0.57;;
21546;SDS011;41275;51.912;4.388;2023-08-30T21:02:24;3.97;;;0.57;;
21546;SDS011;41275;51.912;4.388;2023-08-30T21:07:48;3.03;;;0.80;;
21546;SDS011;41275;51.912;4.388;2023-08-30T21:13:09;3.00;;;0.70;;
21546;SDS011;41275;51.912;4.388;2023-08-30T21:18:31;3.50;;;0.70;;
21546;SDS011;41275;51.912;4.388;2023-08-30T21:23:55;1.27;;;0.35;;
21546;SDS011;41275;51.912;4.388;2023-08-30T21:29:20;2.38;;;0.38;;
21546;SDS011;41275;51.912;4.388;2023-08-30T21:34:41;3.20;;;0.57;;
21546;SDS011;41275;51.912;4.388;2023-08-30T21:40:02;2.77;;;0.30;;
21546;SDS011;41275;51.912;4.388;2023-08-30T21:45:25;3.22;;;0.60;;
21546;SDS011;41275;51.912;4.388;2023-08-30T21:50:46;2.30;;;0.60;;
21546;SDS011;41275;51.912;4.388;2023-08-30T21:56:07;4.40;;;0.90;;
21546;SDS011;41275;51.912;4.388;2023-08-30T22:01:29;1.60;;;0.50;;
21546;SDS011;41275;51.912;4.388;2023-08-30T22:06:50;1.17;;;0.60;;
21546;SDS011;41275;51.912;4.388;2023-08-30T22:12:11;4.00;;;0.50;;
21546;SDS011;41275;51.912;4.388;2023-08-30T22:17:33;1.83;;;0.50;;
21546;SDS011;41275;51.912;4.388;2023-08-30T22:22:54;2.55;;;0.68;;
21546;SDS011;41275;51.912;4.388;2023-08-30T22:28:15;3.85;;;0.52;;
21546;SDS011;41275;51.912;4.388;2023-08-30T22:33:37;6.60;;;0.90;;
21546;SDS011;41275;51.912;4.388;2023-08-30T22:38:58;2.60;;;1.03;;
21546;SDS011;41275;51.912;4.388;2023-08-30T22:44:19;6.70;;;1.02;;
21546;SDS011;41275;51.912;4.388;2023-08-30T22:49:41;2.80;;;0.70;;
21546;SDS011;41275;51.912;4.388;2023-08-30T22:55:02;2.25;;;0.70;;
21546;SDS011;41275;51.912;4.388;2023-08-30T23:00:24;2.60;;;0.55;;
21546;SDS011;41275;51.912;4.388;2023-08-30T23:05:45;4.68;;;0.70;;
21546;SDS011;41275;51.912;4.388;2023-08-30T23:11:07;1.00;;;0.40;;
21546;SDS011;41275;51.912;4.388;2023-08-30T23:16:29;1.75;;;0.50;;
21546;SDS011;41275;51.912;4.388;2023-08-30T23:21:51;0.98;;;0.40;;
21546;SDS011;41275;51.912;4.388;2023-08-30T23:27:12;4.13;;;0.90;;
21546;SDS011;41275;51.912;4.388;2023-08-30T23:32:33;3.33;;;0.68;;
21546;SDS011;41275;51.912;4.388;2023-08-30T23:37:55;2.08;;;0.70;;
21546;SDS011;41275;51.912;4.388;2023-08-30T23:43:16;1.50;;;0.80;;
21546;SDS011;41275;51.912;4.388;2023-08-30T23:48:37;2.07;;;0.70;;
21546;SDS011;41275;51.912;4.388;2023-08-30T23:53:58;3.10;;;0.68;;
21546;SDS011;41275;51.912;4.388;2023-08-30T23:59:19;4.57;;;0.85;;
